This demonstration page uses our WeatherBlox Daily Observations layout. Learn more.

36.17497, -115.13722

Hourly Observations for May 20, 2015

Temp ( °F °C ) Dew Point ( °F °C ) Humidity (%) Winds ( mph kmh ) Pressure ( in mb ) Visibility ( mi km ) Precip ( " mm )
12:53 am 00:53 Clear 69 20.6 24 -4.4 18 18 SSW 5 7 29.86 1011 10 16.0934 0 0
1:53 am 01:53 Clear 64 17.8 26 -3.3 24 24 Calm 29.86 1011 10 16.0934 0 0
2:53 am 02:53 Clear 65 18.3 30 -1.1 27 27 W 5 7 29.86 1011 10 16.0934 0 0
3:53 am 03:53 Clear 62 16.7 32 0 32 32 NW 5 7 29.87 1011 10 16.0934 0 0
4:53 am 04:53 Clear 62 16.7 32 0 32 32 NW 5 7 29.87 1011 10 16.0934 0 0
5:53 am 05:53 Sunny 62 16.7 33 0.6 34 34 NNW 3 6 29.88 1012 10 16.0934 0 0
6:53 am 06:53 Sunny 65 18.3 32 0 29 29 NNW 5 7 29.89 1012 10 16.0934 0 0
7:53 am 07:53 Sunny 68 20 31 -0.6 25 25 NNW 3 6 29.9 1013 10 16.0934 0 0
8:53 am 08:53 Sunny 71 21.7 29 -1.7 21 21 Calm 29.9 1013 10 16.0934 0 0
9:53 am 09:53 Sunny 73 22.8 30 -1.1 20 20 Calm 29.9 1013 10 16.0934 0 0
10:53 am 10:53 Sunny 75 23.9 29 -1.7 18 18 SSE 10 17 29.9 1013 10 16.0934 0 0
11:53 am 11:53 Sunny 77 25 26 -3.3 15 15 SSE 13 20 29.89 1012 10 16.0934 0 0
12:53 pm 12:53 Sunny 76 24.4 24 -4.4 14 14 SSE 10 17 29.89 1012 10 16.0934 0 0
1:53 pm 13:53 Sunny 77 25 23 -5 13 13 SSE 8 13 29.87 1012 10 16.0934 0 0
2:53 pm 14:53 Sunny 80 26.7 22 -5.6 11 11 VRB 5 7 29.84 1011 10 16.0934 0 0
3:53 pm 15:53 Mostly Sunny 80 26.7 23 -5 12 12 Calm 29.82 1010 10 16.0934 0 0
4:53 pm 16:53 Sunny 81 27.2 25 -3.9 13 13 E 8 13 29.79 1009 10 16.0934 0 0
5:53 pm 17:53 Sunny 82 27.8 24 -4.4 12 12 Calm 29.77 1008 10 16.0934 0 0
6:53 pm 18:53 Sunny 82 27.8 17 -8.3 9 9 SSW 14 22 29.76 1008 10 16.0934 0 0
7:53 pm 19:53 Clear 79 26.1 19 -7.2 10 10 S 12 19 29.78 1008 10 16.0934 0 0
8:53 pm 20:53 Clear 78 25.6 20 -6.7 11 11 S 13 20 29.79 1009 10 16.0934 0 0
9:53 pm 21:53 Clear 76 24.4 21 -6.1 13 13 SSW 7 11 29.8 1009 10 16.0934 0 0
10:53 pm 22:53 Clear 73 22.8 23 -5 15 15 SSW 5 7 29.8 1009 10 16.0934 0 0
11:53 pm 23:53 Clear 70 21.1 24 -4.4 18 18 Calm 29.8 1009 10 16.0934 0 0

Powered by AerisWeather